sensor_id;sensor_type;location;lat;lon;timestamp;temperature;humidity
72576;DHT22;60613;48.658;2.328;2022-10-16T00:01:08;21.40;59.10
72576;DHT22;60613;48.658;2.328;2022-10-16T00:03:35;21.40;59.10
72576;DHT22;60613;48.658;2.328;2022-10-16T00:06:01;21.40;59.10
72576;DHT22;60613;48.658;2.328;2022-10-16T00:08:27;21.40;59.10
72576;DHT22;60613;48.658;2.328;2022-10-16T00:10:57;21.40;59.30
72576;DHT22;60613;48.658;2.328;2022-10-16T00:13:23;21.40;59.20
72576;DHT22;60613;48.658;2.328;2022-10-16T00:15:49;21.40;59.20
72576;DHT22;60613;48.658;2.328;2022-10-16T00:18:14;21.40;59.10
72576;DHT22;60613;48.658;2.328;2022-10-16T00:20:40;21.40;59.10
72576;DHT22;60613;48.658;2.328;2022-10-16T00:23:05;21.40;59.20
72576;DHT22;60613;48.658;2.328;2022-10-16T00:25:31;21.40;59.10
72576;DHT22;60613;48.658;2.328;2022-10-16T00:27:59;21.40;59.10
72576;DHT22;60613;48.658;2.328;2022-10-16T00:30:25;21.40;59.10
72576;DHT22;60613;48.658;2.328;2022-10-16T00:32:53;21.40;59.20
72576;DHT22;60613;48.658;2.328;2022-10-16T00:35:18;21.40;59.30
72576;DHT22;60613;48.658;2.328;2022-10-16T00:37:44;21.40;59.20
72576;DHT22;60613;48.658;2.328;2022-10-16T00:40:10;21.40;59.10
72576;DHT22;60613;48.658;2.328;2022-10-16T00:42:35;21.40;59.10
72576;DHT22;60613;48.658;2.328;2022-10-16T00:45:02;21.40;59.10
72576;DHT22;60613;48.658;2.328;2022-10-16T00:47:30;21.40;59.10
72576;DHT22;60613;48.658;2.328;2022-10-16T00:50:13;21.40;59.20
72576;DHT22;60613;48.658;2.328;2022-10-16T00:52:44;21.40;59.20
72576;DHT22;60613;48.658;2.328;2022-10-16T00:55:11;21.40;60.10
72576;DHT22;60613;48.658;2.328;2022-10-16T00:57:37;21.40;60.30
72576;DHT22;60613;48.658;2.328;2022-10-16T01:00:07;21.40;59.10
72576;DHT22;60613;48.658;2.328;2022-10-16T01:02:33;21.40;59.20
72576;DHT22;60613;48.658;2.328;2022-10-16T01:04:59;21.40;59.20
72576;DHT22;60613;48.658;2.328;2022-10-16T01:07:45;21.40;59.20
72576;DHT22;60613;48.658;2.328;2022-10-16T01:13:07;21.40;59.20
72576;DHT22;60613;48.658;2.328;2022-10-16T01:15:56;21.40;59.10
72576;DHT22;60613;48.658;2.328;2022-10-16T01:18:45;21.40;59.10
72576;DHT22;60613;48.658;2.328;2022-10-16T01:21:41;21.40;59.20
72576;DHT22;60613;48.658;2.328;2022-10-16T01:29:29;21.40;59.20
72576;DHT22;60613;48.658;2.328;2022-10-16T01:32:02;21.40;60.30
72576;DHT22;60613;48.658;2.328;2022-10-16T01:34:38;21.30;59.20
72576;DHT22;60613;48.658;2.328;2022-10-16T01:37:15;21.40;59.30
72576;DHT22;60613;48.658;2.328;2022-10-16T01:39:45;21.40;59.20
72576;DHT22;60613;48.658;2.328;2022-10-16T01:42:19;21.30;59.20
72576;DHT22;60613;48.658;2.328;2022-10-16T01:44:47;21.30;59.10
72576;DHT22;60613;48.658;2.328;2022-10-16T01:47:15;21.30;59.10
72576;DHT22;60613;48.658;2.328;2022-10-16T01:49:43;21.30;60.10
72576;DHT22;60613;48.658;2.328;2022-10-16T01:52:13;21.30;59.10
72576;DHT22;60613;48.658;2.328;2022-10-16T01:54:43;21.30;59.10
72576;DHT22;60613;48.658;2.328;2022-10-16T01:57:11;21.30;59.20
72576;DHT22;60613;48.658;2.328;2022-10-16T01:59:47;21.30;59.10
72576;DHT22;60613;48.658;2.328;2022-10-16T02:02:15;21.30;59.10
72576;DHT22;60613;48.658;2.328;2022-10-16T02:04:46;21.30;59.20
72576;DHT22;60613;48.658;2.328;2022-10-16T02:07:14;21.30;59.10
72576;DHT22;60613;48.658;2.328;2022-10-16T02:09:40;21.30;59.10
72576;DHT22;60613;48.658;2.328;2022-10-16T02:12:22;21.30;59.20
72576;DHT22;60613;48.658;2.328;2022-10-16T02:14:49;21.30;59.20
72576;DHT22;60613;48.658;2.328;2022-10-16T02:17:16;21.30;59.20
72576;DHT22;60613;48.658;2.328;2022-10-16T02:19:44;21.30;59.10
72576;DHT22;60613;48.658;2.328;2022-10-16T02:22:16;21.30;59.10
72576;DHT22;60613;48.658;2.328;2022-10-16T02:24:52;21.30;59.00
72576;DHT22;60613;48.658;2.328;2022-10-16T02:30:09;21.30;59.00
72576;DHT22;60613;48.658;2.328;2022-10-16T02:32:39;21.30;59.10
72576;DHT22;60613;48.658;2.328;2022-10-16T02:35:06;21.30;59.10
72576;DHT22;60613;48.658;2.328;2022-10-16T02:37:32;21.30;59.00
72576;DHT22;60613;48.658;2.328;2022-10-16T02:39:58;21.30;59.20
72576;DHT22;60613;48.658;2.328;2022-10-16T02:42:31;21.30;60.30
72576;DHT22;60613;48.658;2.328;2022-10-16T02:44:58;21.30;59.20
72576;DHT22;60613;48.658;2.328;2022-10-16T02:47:23;21.30;59.10
72576;DHT22;60613;48.658;2.328;2022-10-16T02:49:49;21.30;59.20
72576;DHT22;60613;48.658;2.328;2022-10-16T02:52:14;21.30;59.10
72576;DHT22;60613;48.658;2.328;2022-10-16T02:54:40;21.30;59.20
72576;DHT22;60613;48.658;2.328;2022-10-16T02:57:05;21.30;59.20
72576;DHT22;60613;48.658;2.328;2022-10-16T02:59:31;21.30;59.00
72576;DHT22;60613;48.658;2.328;2022-10-16T03:01:57;21.20;59.10
72576;DHT22;60613;48.658;2.328;2022-10-16T03:04:22;21.20;59.10
72576;DHT22;60613;48.658;2.328;2022-10-16T03:06:49;21.30;59.20
72576;DHT22;60613;48.658;2.328;2022-10-16T03:09:15;21.20;59.10
72576;DHT22;60613;48.658;2.328;2022-10-16T03:11:40;21.20;59.10
72576;DHT22;60613;48.658;2.328;2022-10-16T03:14:06;21.30;59.10
72576;DHT22;60613;48.658;2.328;2022-10-16T03:16:32;21.20;59.10
72576;DHT22;60613;48.658;2.328;2022-10-16T03:18:58;21.20;59.00
72576;DHT22;60613;48.658;2.328;2022-10-16T03:21:24;21.20;59.10
72576;DHT22;60613;48.658;2.328;2022-10-16T03:23:50;21.30;59.10
72576;DHT22;60613;48.658;2.328;2022-10-16T03:26:15;21.20;59.10
72576;DHT22;60613;48.658;2.328;2022-10-16T03:28:41;21.20;59.10
72576;DHT22;60613;48.658;2.328;2022-10-16T03:31:07;21.20;59.10
72576;DHT22;60613;48.658;2.328;2022-10-16T03:33:33;21.20;59.00
72576;DHT22;60613;48.658;2.328;2022-10-16T03:35:59;21.20;59.00
72576;DHT22;60613;48.658;2.328;2022-10-16T03:38:25;21.30;59.10
72576;DHT22;60613;48.658;2.328;2022-10-16T03:40:51;21.30;59.10
72576;DHT22;60613;48.658;2.328;2022-10-16T03:43:16;21.20;59.10
72576;DHT22;60613;48.658;2.328;2022-10-16T03:45:42;21.20;59.10
72576;DHT22;60613;48.658;2.328;2022-10-16T03:48:08;21.20;59.00
72576;DHT22;60613;48.658;2.328;2022-10-16T03:50:34;21.20;59.00
72576;DHT22;60613;48.658;2.328;2022-10-16T03:52:59;21.20;59.10
72576;DHT22;60613;48.658;2.328;2022-10-16T03:55:25;21.20;59.00
72576;DHT22;60613;48.658;2.328;2022-10-16T03:57:50;21.20;59.00
72576;DHT22;60613;48.658;2.328;2022-10-16T04:00:16;21.20;59.10
72576;DHT22;60613;48.658;2.328;2022-10-16T04:02:42;21.20;59.00
72576;DHT22;60613;48.658;2.328;2022-10-16T04:05:08;21.20;60.10
72576;DHT22;60613;48.658;2.328;2022-10-16T04:07:33;21.20;60.10
72576;DHT22;60613;48.658;2.328;2022-10-16T04:09:59;21.20;58.90
72576;DHT22;60613;48.658;2.328;2022-10-16T04:12:26;21.20;59.00
72576;DHT22;60613;48.658;2.328;2022-10-16T04:14:51;21.20;59.00
72576;DHT22;60613;48.658;2.328;2022-10-16T04:17:17;21.20;58.90
72576;DHT22;60613;48.658;2.328;2022-10-16T04:19:43;21.20;59.00
72576;DHT22;60613;48.658;2.328;2022-10-16T04:22:08;21.20;59.00
72576;DHT22;60613;48.658;2.328;2022-10-16T04:24:34;21.20;59.00
72576;DHT22;60613;48.658;2.328;2022-10-16T04:27:00;21.20;59.10
72576;DHT22;60613;48.658;2.328;2022-10-16T04:29:25;21.20;59.10
72576;DHT22;60613;48.658;2.328;2022-10-16T04:31:51;21.20;59.00
72576;DHT22;60613;48.658;2.328;2022-10-16T04:34:16;21.20;59.00
72576;DHT22;60613;48.658;2.328;2022-10-16T04:36:42;21.20;58.90
72576;DHT22;60613;48.658;2.328;2022-10-16T04:39:07;21.20;58.90
72576;DHT22;60613;48.658;2.328;2022-10-16T04:41:33;21.20;59.00
72576;DHT22;60613;48.658;2.328;2022-10-16T04:43:59;21.10;58.90
72576;DHT22;60613;48.658;2.328;2022-10-16T04:46:24;21.20;59.00
72576;DHT22;60613;48.658;2.328;2022-10-16T04:48:50;21.20;59.00
72576;DHT22;60613;48.658;2.328;2022-10-16T04:51:15;21.20;58.90
72576;DHT22;60613;48.658;2.328;2022-10-16T04:53:41;21.20;59.10
72576;DHT22;60613;48.658;2.328;2022-10-16T04:56:06;21.20;58.90
72576;DHT22;60613;48.658;2.328;2022-10-16T04:58:32;21.20;58.90
72576;DHT22;60613;48.658;2.328;2022-10-16T05:00:58;21.20;58.90
72576;DHT22;60613;48.658;2.328;2022-10-16T05:03:23;21.20;58.90
72576;DHT22;60613;48.658;2.328;2022-10-16T05:05:49;21.10;58.90
72576;DHT22;60613;48.658;2.328;2022-10-16T05:08:16;21.20;59.00
72576;DHT22;60613;48.658;2.328;2022-10-16T05:10:42;21.10;59.00
72576;DHT22;60613;48.658;2.328;2022-10-16T05:13:08;21.10;58.90
72576;DHT22;60613;48.658;2.328;2022-10-16T05:15:34;21.10;58.90
72576;DHT22;60613;48.658;2.328;2022-10-16T05:18:00;21.10;58.90
72576;DHT22;60613;48.658;2.328;2022-10-16T05:20:25;21.10;58.90
72576;DHT22;60613;48.658;2.328;2022-10-16T05:22:51;21.20;58.90
72576;DHT22;60613;48.658;2.328;2022-10-16T05:25:17;21.10;58.90
72576;DHT22;60613;48.658;2.328;2022-10-16T05:27:42;21.10;58.90
72576;DHT22;60613;48.658;2.328;2022-10-16T05:30:08;21.10;58.80
72576;DHT22;60613;48.658;2.328;2022-10-16T05:32:34;21.20;58.80
72576;DHT22;60613;48.658;2.328;2022-10-16T05:35:00;21.10;58.90
72576;DHT22;60613;48.658;2.328;2022-10-16T05:37:27;21.10;58.90
72576;DHT22;60613;48.658;2.328;2022-10-16T05:39:52;21.10;58.90
72576;DHT22;60613;48.658;2.328;2022-10-16T05:42:18;21.10;58.90
72576;DHT22;60613;48.658;2.328;2022-10-16T05:44:44;21.10;58.90
72576;DHT22;60613;48.658;2.328;2022-10-16T05:47:09;21.10;58.90
72576;DHT22;60613;48.658;2.328;2022-10-16T05:49:36;21.10;58.90
72576;DHT22;60613;48.658;2.328;2022-10-16T05:52:01;21.10;59.00
72576;DHT22;60613;48.658;2.328;2022-10-16T05:54:27;21.10;58.90
72576;DHT22;60613;48.658;2.328;2022-10-16T05:56:52;21.10;60.00
72576;DHT22;60613;48.658;2.328;2022-10-16T05:59:18;21.10;59.10
72576;DHT22;60613;48.658;2.328;2022-10-16T06:01:44;21.10;59.10
72576;DHT22;60613;48.658;2.328;2022-10-16T06:04:09;21.00;59.10
72576;DHT22;60613;48.658;2.328;2022-10-16T06:06:35;21.00;59.00
72576;DHT22;60613;48.658;2.328;2022-10-16T06:09:02;21.10;59.00
72576;DHT22;60613;48.658;2.328;2022-10-16T06:11:30;21.10;59.00
72576;DHT22;60613;48.658;2.328;2022-10-16T06:13:58;21.10;59.00
72576;DHT22;60613;48.658;2.328;2022-10-16T06:16:25;21.10;58.90
72576;DHT22;60613;48.658;2.328;2022-10-16T06:18:52;21.10;58.90
72576;DHT22;60613;48.658;2.328;2022-10-16T06:21:20;21.10;58.80
72576;DHT22;60613;48.658;2.328;2022-10-16T06:23:47;21.10;58.60
72576;DHT22;60613;48.658;2.328;2022-10-16T06:26:15;21.20;58.70
72576;DHT22;60613;48.658;2.328;2022-10-16T06:28:41;21.10;58.80
72576;DHT22;60613;48.658;2.328;2022-10-16T06:31:08;21.10;58.70
72576;DHT22;60613;48.658;2.328;2022-10-16T06:33:35;21.20;58.20
72576;DHT22;60613;48.658;2.328;2022-10-16T06:36:06;21.30;57.90
72576;DHT22;60613;48.658;2.328;2022-10-16T06:38:33;21.40;57.70
72576;DHT22;60613;48.658;2.328;2022-10-16T06:40:59;21.50;57.70
72576;DHT22;60613;48.658;2.328;2022-10-16T06:43:25;21.50;57.40
72576;DHT22;60613;48.658;2.328;2022-10-16T06:48:18;21.60;57.30
72576;DHT22;60613;48.658;2.328;2022-10-16T06:50:43;21.60;57.20
72576;DHT22;60613;48.658;2.328;2022-10-16T06:53:09;21.50;57.50
72576;DHT22;60613;48.658;2.328;2022-10-16T06:55:35;21.40;57.90
72576;DHT22;60613;48.658;2.328;2022-10-16T06:58:00;21.30;58.30
72576;DHT22;60613;48.658;2.328;2022-10-16T07:00:26;21.40;58.20
72576;DHT22;60613;48.658;2.328;2022-10-16T07:02:51;21.40;58.20
72576;DHT22;60613;48.658;2.328;2022-10-16T07:05:17;21.50;58.10
72576;DHT22;60613;48.658;2.328;2022-10-16T07:07:43;21.50;58.00
72576;DHT22;60613;48.658;2.328;2022-10-16T07:10:08;21.50;57.90
72576;DHT22;60613;48.658;2.328;2022-10-16T07:12:34;21.50;57.90
72576;DHT22;60613;48.658;2.328;2022-10-16T07:14:59;21.50;59.00
72576;DHT22;60613;48.658;2.328;2022-10-16T07:17:25;21.50;57.80
72576;DHT22;60613;48.658;2.328;2022-10-16T07:19:50;21.50;58.00
72576;DHT22;60613;48.658;2.328;2022-10-16T07:22:18;21.50;58.80
72576;DHT22;60613;48.658;2.328;2022-10-16T07:24:44;21.40;59.00
72576;DHT22;60613;48.658;2.328;2022-10-16T07:27:10;21.40;59.40
72576;DHT22;60613;48.658;2.328;2022-10-16T07:29:35;21.30;59.80
72576;DHT22;60613;48.658;2.328;2022-10-16T07:32:01;21.40;60.00
72576;DHT22;60613;48.658;2.328;2022-10-16T07:34:27;21.30;60.20
72576;DHT22;60613;48.658;2.328;2022-10-16T07:36:53;21.30;60.70
72576;DHT22;60613;48.658;2.328;2022-10-16T07:39:18;21.20;60.90
72576;DHT22;60613;48.658;2.328;2022-10-16T07:41:44;21.30;61.10
72576;DHT22;60613;48.658;2.328;2022-10-16T07:44:10;21.30;60.60
72576;DHT22;60613;48.658;2.328;2022-10-16T07:46:36;21.40;60.60
72576;DHT22;60613;48.658;2.328;2022-10-16T07:49:02;21.50;60.60
72576;DHT22;60613;48.658;2.328;2022-10-16T07:51:28;21.60;60.00
72576;DHT22;60613;48.658;2.328;2022-10-16T07:53:54;21.60;61.20
72576;DHT22;60613;48.658;2.328;2022-10-16T07:56:21;21.60;60.90
72576;DHT22;60613;48.658;2.328;2022-10-16T07:58:47;21.70;59.70
72576;DHT22;60613;48.658;2.328;2022-10-16T08:01:15;21.70;59.30
72576;DHT22;60613;48.658;2.328;2022-10-16T08:03:42;21.70;59.30
72576;DHT22;60613;48.658;2.328;2022-10-16T08:06:08;21.70;59.30
72576;DHT22;60613;48.658;2.328;2022-10-16T08:08:34;21.80;59.30
72576;DHT22;60613;48.658;2.328;2022-10-16T08:11:00;21.80;59.10
72576;DHT22;60613;48.658;2.328;2022-10-16T08:13:28;21.80;59.00
72576;DHT22;60613;48.658;2.328;2022-10-16T08:15:55;21.80;59.00
72576;DHT22;60613;48.658;2.328;2022-10-16T08:18:21;21.90;59.20
72576;DHT22;60613;48.658;2.328;2022-10-16T08:20:47;21.80;58.80
72576;DHT22;60613;48.658;2.328;2022-10-16T08:23:12;21.80;59.00
72576;DHT22;60613;48.658;2.328;2022-10-16T08:25:39;21.80;59.00
72576;DHT22;60613;48.658;2.328;2022-10-16T08:28:06;21.80;58.60
72576;DHT22;60613;48.658;2.328;2022-10-16T08:30:33;21.70;59.90
72576;DHT22;60613;48.658;2.328;2022-10-16T08:32:58;21.80;58.60
72576;DHT22;60613;48.658;2.328;2022-10-16T08:35:24;21.80;58.30
72576;DHT22;60613;48.658;2.328;2022-10-16T08:37:50;21.90;58.40
72576;DHT22;60613;48.658;2.328;2022-10-16T08:40:29;21.80;59.10
72576;DHT22;60613;48.658;2.328;2022-10-16T08:48:51;21.90;58.90
72576;DHT22;60613;48.658;2.328;2022-10-16T08:51:23;21.90;59.50
72576;DHT22;60613;48.658;2.328;2022-10-16T08:54:03;21.90;59.50
72576;DHT22;60613;48.658;2.328;2022-10-16T08:56:30;21.90;59.50
72576;DHT22;60613;48.658;2.328;2022-10-16T08:58:57;21.80;59.50
72576;DHT22;60613;48.658;2.328;2022-10-16T09:01:25;21.80;59.30
72576;DHT22;60613;48.658;2.328;2022-10-16T09:07:36;21.80;59.20
72576;DHT22;60613;48.658;2.328;2022-10-16T09:10:03;21.80;59.50
72576;DHT22;60613;48.658;2.328;2022-10-16T09:12:55;21.70;59.60
72576;DHT22;60613;48.658;2.328;2022-10-16T09:15:44;21.70;59.40
72576;DHT22;60613;48.658;2.328;2022-10-16T09:18:43;21.70;59.50
72576;DHT22;60613;48.658;2.328;2022-10-16T09:21:28;21.70;59.60
72576;DHT22;60613;48.658;2.328;2022-10-16T09:23:58;21.70;59.70
72576;DHT22;60613;48.658;2.328;2022-10-16T09:26:25;21.70;59.70
72576;DHT22;60613;48.658;2.328;2022-10-16T09:28:52;21.70;59.70
72576;DHT22;60613;48.658;2.328;2022-10-16T09:31:20;21.70;59.70
72576;DHT22;60613;48.658;2.328;2022-10-16T09:33:53;21.70;59.70
72576;DHT22;60613;48.658;2.328;2022-10-16T09:36:20;21.70;59.70
72576;DHT22;60613;48.658;2.328;2022-10-16T09:38:46;21.70;59.80
72576;DHT22;60613;48.658;2.328;2022-10-16T09:41:16;21.70;59.80
72576;DHT22;60613;48.658;2.328;2022-10-16T09:48:55;21.70;59.80
72576;DHT22;60613;48.658;2.328;2022-10-16T09:51:24;21.70;59.90
72576;DHT22;60613;48.658;2.328;2022-10-16T09:53:56;21.70;59.70
72576;DHT22;60613;48.658;2.328;2022-10-16T09:56:25;21.70;59.70
72576;DHT22;60613;48.658;2.328;2022-10-16T09:59:08;21.70;59.70
72576;DHT22;60613;48.658;2.328;2022-10-16T10:01:45;21.70;59.60
72576;DHT22;60613;48.658;2.328;2022-10-16T10:04:12;21.70;59.70
72576;DHT22;60613;48.658;2.328;2022-10-16T10:06:44;21.70;59.60
72576;DHT22;60613;48.658;2.328;2022-10-16T10:16:46;21.70;59.60
72576;DHT22;60613;48.658;2.328;2022-10-16T10:19:17;21.70;59.50
72576;DHT22;60613;48.658;2.328;2022-10-16T10:21:43;21.70;59.40
72576;DHT22;60613;48.658;2.328;2022-10-16T10:24:14;21.70;59.70
72576;DHT22;60613;48.658;2.328;2022-10-16T10:34:54;21.70;59.30
72576;DHT22;60613;48.658;2.328;2022-10-16T10:45:46;21.80;59.50
72576;DHT22;60613;48.658;2.328;2022-10-16T10:48:27;21.70;59.60
72576;DHT22;60613;48.658;2.328;2022-10-16T10:51:05;21.70;59.70
72576;DHT22;60613;48.658;2.328;2022-10-16T10:57:06;21.70;60.00
72576;DHT22;60613;48.658;2.328;2022-10-16T11:00:03;21.70;59.80
72576;DHT22;60613;48.658;2.328;2022-10-16T11:05:15;21.70;59.70
72576;DHT22;60613;48.658;2.328;2022-10-16T11:07:51;21.70;59.90
72576;DHT22;60613;48.658;2.328;2022-10-16T11:10:22;21.70;59.70
72576;DHT22;60613;48.658;2.328;2022-10-16T11:13:04;21.70;59.70
72576;DHT22;60613;48.658;2.328;2022-10-16T11:15:35;21.80;59.60
72576;DHT22;60613;48.658;2.328;2022-10-16T11:18:08;21.80;59.50
72576;DHT22;60613;48.658;2.328;2022-10-16T11:20:51;21.70;59.70
72576;DHT22;60613;48.658;2.328;2022-10-16T11:23:42;21.70;59.50
72576;DHT22;60613;48.658;2.328;2022-10-16T11:26:33;21.80;59.50
72576;DHT22;60613;48.658;2.328;2022-10-16T11:29:01;21.80;59.60
72576;DHT22;60613;48.658;2.328;2022-10-16T11:31:51;21.90;59.50
72576;DHT22;60613;48.658;2.328;2022-10-16T11:34:26;22.00;58.90
72576;DHT22;60613;48.658;2.328;2022-10-16T11:37:17;22.10;58.60
72576;DHT22;60613;48.658;2.328;2022-10-16T11:39:45;22.10;58.80
72576;DHT22;60613;48.658;2.328;2022-10-16T11:42:22;22.20;58.40
72576;DHT22;60613;48.658;2.328;2022-10-16T11:47:46;22.30;58.20
72576;DHT22;60613;48.658;2.328;2022-10-16T11:55:38;22.30;58.00
72576;DHT22;60613;48.658;2.328;2022-10-16T12:07:05;22.30;59.00
72576;DHT22;60613;48.658;2.328;2022-10-16T12:09:36;22.40;57.90
72576;DHT22;60613;48.658;2.328;2022-10-16T12:12:01;22.40;57.90
72576;DHT22;60613;48.658;2.328;2022-10-16T12:14:34;22.40;57.90
72576;DHT22;60613;48.658;2.328;2022-10-16T12:17:03;22.40;57.90
72576;DHT22;60613;48.658;2.328;2022-10-16T12:19:31;22.40;57.90
72576;DHT22;60613;48.658;2.328;2022-10-16T12:22:01;22.40;57.90
72576;DHT22;60613;48.658;2.328;2022-10-16T12:24:36;22.40;58.20
72576;DHT22;60613;48.658;2.328;2022-10-16T12:27:04;22.40;57.90
72576;DHT22;60613;48.658;2.328;2022-10-16T12:29:41;22.40;57.80
72576;DHT22;60613;48.658;2.328;2022-10-16T12:34:58;22.50;57.80
72576;DHT22;60613;48.658;2.328;2022-10-16T12:37:30;22.50;57.80
72576;DHT22;60613;48.658;2.328;2022-10-16T12:39:56;22.50;58.90
72576;DHT22;60613;48.658;2.328;2022-10-16T12:44:52;22.50;57.60
72576;DHT22;60613;48.658;2.328;2022-10-16T12:47:37;22.60;57.70
72576;DHT22;60613;48.658;2.328;2022-10-16T12:50:21;22.50;57.70
72576;DHT22;60613;48.658;2.328;2022-10-16T12:52:48;22.50;57.60
72576;DHT22;60613;48.658;2.328;2022-10-16T12:55:18;22.60;57.70
72576;DHT22;60613;48.658;2.328;2022-10-16T12:57:57;22.60;57.70
72576;DHT22;60613;48.658;2.328;2022-10-16T13:00:45;22.60;57.80
72576;DHT22;60613;48.658;2.328;2022-10-16T13:06:59;22.60;57.70
72576;DHT22;60613;48.658;2.328;2022-10-16T13:20:34;22.50;58.20
72576;DHT22;60613;48.658;2.328;2022-10-16T13:23:13;22.40;58.60
72576;DHT22;60613;48.658;2.328;2022-10-16T13:25:52;22.50;58.60
72576;DHT22;60613;48.658;2.328;2022-10-16T13:28:22;22.60;58.20
72576;DHT22;60613;48.658;2.328;2022-10-16T13:30:54;22.60;57.90
72576;DHT22;60613;48.658;2.328;2022-10-16T13:33:36;22.70;57.90
72576;DHT22;60613;48.658;2.328;2022-10-16T13:36:04;22.70;57.60
72576;DHT22;60613;48.658;2.328;2022-10-16T13:38:32;22.70;57.70
72576;DHT22;60613;48.658;2.328;2022-10-16T13:41:01;22.80;57.60
72576;DHT22;60613;48.658;2.328;2022-10-16T13:43:32;22.80;57.50
72576;DHT22;60613;48.658;2.328;2022-10-16T13:46:10;22.80;57.50
72576;DHT22;60613;48.658;2.328;2022-10-16T13:48:37;22.80;57.60
72576;DHT22;60613;48.658;2.328;2022-10-16T13:51:15;22.80;57.60
72576;DHT22;60613;48.658;2.328;2022-10-16T13:53:42;22.80;57.60
72576;DHT22;60613;48.658;2.328;2022-10-16T13:56:16;22.80;57.70
72576;DHT22;60613;48.658;2.328;2022-10-16T13:58:42;22.80;57.60
72576;DHT22;60613;48.658;2.328;2022-10-16T14:01:23;22.90;57.70
72576;DHT22;60613;48.658;2.328;2022-10-16T14:03:51;22.90;57.60
72576;DHT22;60613;48.658;2.328;2022-10-16T14:06:21;22.80;57.70
72576;DHT22;60613;48.658;2.328;2022-10-16T14:09:14;22.70;58.20
72576;DHT22;60613;48.658;2.328;2022-10-16T14:11:49;22.70;58.20
72576;DHT22;60613;48.658;2.328;2022-10-16T14:14:17;22.60;58.50
72576;DHT22;60613;48.658;2.328;2022-10-16T14:16:44;22.50;58.60
72576;DHT22;60613;48.658;2.328;2022-10-16T14:19:25;22.50;58.70
72576;DHT22;60613;48.658;2.328;2022-10-16T14:21:52;22.40;58.80
72576;DHT22;60613;48.658;2.328;2022-10-16T14:26:55;22.40;58.90
72576;DHT22;60613;48.658;2.328;2022-10-16T14:29:23;22.40;59.00
72576;DHT22;60613;48.658;2.328;2022-10-16T14:32:00;22.40;59.00
72576;DHT22;60613;48.658;2.328;2022-10-16T14:36:56;22.40;59.00
72576;DHT22;60613;48.658;2.328;2022-10-16T14:39:23;22.40;59.00
72576;DHT22;60613;48.658;2.328;2022-10-16T14:41:52;22.30;59.00
72576;DHT22;60613;48.658;2.328;2022-10-16T14:44:18;22.30;59.00
72576;DHT22;60613;48.658;2.328;2022-10-16T14:46:46;22.30;58.90
72576;DHT22;60613;48.658;2.328;2022-10-16T14:49:14;22.30;59.00
72576;DHT22;60613;48.658;2.328;2022-10-16T14:51:41;22.30;58.90
72576;DHT22;60613;48.658;2.328;2022-10-16T14:54:09;22.30;58.90
72576;DHT22;60613;48.658;2.328;2022-10-16T14:56:54;22.30;58.90
72576;DHT22;60613;48.658;2.328;2022-10-16T14:59:31;22.40;59.00
72576;DHT22;60613;48.658;2.328;2022-10-16T15:01:57;22.40;59.00
72576;DHT22;60613;48.658;2.328;2022-10-16T15:04:23;22.30;59.00
72576;DHT22;60613;48.658;2.328;2022-10-16T15:06:49;22.40;59.00
72576;DHT22;60613;48.658;2.328;2022-10-16T15:09:14;22.30;58.90
72576;DHT22;60613;48.658;2.328;2022-10-16T15:11:41;22.30;58.90
72576;DHT22;60613;48.658;2.328;2022-10-16T15:14:11;22.30;58.90
72576;DHT22;60613;48.658;2.328;2022-10-16T15:16:37;22.30;58.90
72576;DHT22;60613;48.658;2.328;2022-10-16T15:19:03;22.30;60.00
72576;DHT22;60613;48.658;2.328;2022-10-16T15:21:31;22.30;58.90
72576;DHT22;60613;48.658;2.328;2022-10-16T15:23:58;22.30;58.80
72576;DHT22;60613;48.658;2.328;2022-10-16T15:26:25;22.30;58.90
72576;DHT22;60613;48.658;2.328;2022-10-16T15:28:51;22.30;58.90
72576;DHT22;60613;48.658;2.328;2022-10-16T15:31:17;22.30;59.10
72576;DHT22;60613;48.658;2.328;2022-10-16T15:33:42;22.30;59.20
72576;DHT22;60613;48.658;2.328;2022-10-16T15:36:08;22.40;59.30
72576;DHT22;60613;48.658;2.328;2022-10-16T15:38:34;22.50;58.80
72576;DHT22;60613;48.658;2.328;2022-10-16T15:41:00;22.60;58.50
72576;DHT22;60613;48.658;2.328;2022-10-16T15:43:26;22.60;58.50
72576;DHT22;60613;48.658;2.328;2022-10-16T15:46:03;22.60;58.50
72576;DHT22;60613;48.658;2.328;2022-10-16T15:48:29;22.70;58.20
72576;DHT22;60613;48.658;2.328;2022-10-16T15:50:55;22.80;58.00
72576;DHT22;60613;48.658;2.328;2022-10-16T15:53:21;22.80;57.80
72576;DHT22;60613;48.658;2.328;2022-10-16T15:55:46;22.80;57.60
72576;DHT22;60613;48.658;2.328;2022-10-16T15:58:12;22.80;58.00
72576;DHT22;60613;48.658;2.328;2022-10-16T16:00:37;22.80;57.90
72576;DHT22;60613;48.658;2.328;2022-10-16T16:03:04;22.90;57.60
72576;DHT22;60613;48.658;2.328;2022-10-16T16:05:29;23.00;57.40
72576;DHT22;60613;48.658;2.328;2022-10-16T16:07:56;23.00;57.30
72576;DHT22;60613;48.658;2.328;2022-10-16T16:10:22;23.00;57.20
72576;DHT22;60613;48.658;2.328;2022-10-16T16:12:48;23.10;57.10
72576;DHT22;60613;48.658;2.328;2022-10-16T16:15:22;23.10;57.00
72576;DHT22;60613;48.658;2.328;2022-10-16T16:17:48;23.10;56.90
72576;DHT22;60613;48.658;2.328;2022-10-16T16:20:14;23.20;58.00
72576;DHT22;60613;48.658;2.328;2022-10-16T16:22:40;23.20;56.80
72576;DHT22;60613;48.658;2.328;2022-10-16T16:25:06;23.20;56.70
72576;DHT22;60613;48.658;2.328;2022-10-16T16:27:32;23.20;56.70
72576;DHT22;60613;48.658;2.328;2022-10-16T16:30:01;23.20;56.60
72576;DHT22;60613;48.658;2.328;2022-10-16T16:32:28;23.20;56.70
72576;DHT22;60613;48.658;2.328;2022-10-16T16:34:54;23.20;56.60
72576;DHT22;60613;48.658;2.328;2022-10-16T16:37:20;23.30;56.60
72576;DHT22;60613;48.658;2.328;2022-10-16T16:39:45;23.30;56.50
72576;DHT22;60613;48.658;2.328;2022-10-16T16:42:11;23.20;56.70
72576;DHT22;60613;48.658;2.328;2022-10-16T16:44:37;23.10;58.00
72576;DHT22;60613;48.658;2.328;2022-10-16T16:47:04;23.00;57.10
72576;DHT22;60613;48.658;2.328;2022-10-16T16:49:30;23.00;57.30
72576;DHT22;60613;48.658;2.328;2022-10-16T16:51:55;22.90;57.50
72576;DHT22;60613;48.658;2.328;2022-10-16T16:54:21;22.90;57.70
72576;DHT22;60613;48.658;2.328;2022-10-16T16:56:47;22.80;57.90
72576;DHT22;60613;48.658;2.328;2022-10-16T16:59:15;22.80;58.10
72576;DHT22;60613;48.658;2.328;2022-10-16T17:01:41;22.70;58.10
72576;DHT22;60613;48.658;2.328;2022-10-16T17:04:07;22.70;58.20
72576;DHT22;60613;48.658;2.328;2022-10-16T17:06:33;22.70;58.30
72576;DHT22;60613;48.658;2.328;2022-10-16T17:09:01;22.70;58.30
72576;DHT22;60613;48.658;2.328;2022-10-16T17:11:28;22.60;58.60
72576;DHT22;60613;48.658;2.328;2022-10-16T17:13:55;22.50;60.00
72576;DHT22;60613;48.658;2.328;2022-10-16T17:16:21;22.50;59.10
72576;DHT22;60613;48.658;2.328;2022-10-16T17:18:47;22.40;59.10
72576;DHT22;60613;48.658;2.328;2022-10-16T17:21:13;22.40;59.20